sensor_id;sensor_type;location;lat;lon;timestamp;P1;durP1;ratioP1;P2;durP2;ratioP2
1959;SDS011;980;43.794;11.212;2023-08-01T05:58:22;14.75;;;13.75;;
1959;SDS011;980;43.794;11.212;2023-08-01T06:00:48;12.25;;;12.25;;
1959;SDS011;980;43.794;11.212;2023-08-01T06:03:13;12.75;;;12.75;;
1959;SDS011;980;43.794;11.212;2023-08-01T06:05:38;12.67;;;12.33;;
1959;SDS011;980;43.794;11.212;2023-08-01T06:08:05;16.33;;;13.00;;
1959;SDS011;980;43.794;11.212;2023-08-01T06:10:31;13.67;;;11.00;;
1959;SDS011;980;43.794;11.212;2023-08-01T06:12:56;11.00;;;8.00;;
1959;SDS011;980;43.794;11.212;2023-08-01T06:15:21;10.00;;;8.67;;
1959;SDS011;980;43.794;11.212;2023-08-01T06:17:47;8.00;;;8.00;;
1959;SDS011;980;43.794;11.212;2023-08-01T06:20:12;11.00;;;10.00;;
1959;SDS011;980;43.794;11.212;2023-08-01T06:22:47;10.00;;;10.00;;
1959;SDS011;980;43.794;11.212;2023-08-01T06:25:12;12.33;;;9.67;;
1959;SDS011;980;43.794;11.212;2023-08-01T06:27:37;9.33;;;8.33;;
1959;SDS011;980;43.794;11.212;2023-08-01T06:30:03;15.50;;;11.25;;
1959;SDS011;980;43.794;11.212;2023-08-01T06:32:28;36.00;;;29.00;;
1959;SDS011;980;43.794;11.212;2023-08-01T06:34:54;58.75;;;48.00;;
1959;SDS011;980;43.794;11.212;2023-08-01T06:37:19;20.50;;;19.75;;
1959;SDS011;980;43.794;11.212;2023-08-01T06:39:44;13.67;;;9.33;;
1959;SDS011;980;43.794;11.212;2023-08-01T06:42:10;14.00;;;11.67;;
1959;SDS011;980;43.794;11.212;2023-08-01T06:44:35;11.33;;;9.00;;
1959;SDS011;980;43.794;11.212;2023-08-01T06:47:00;15.00;;;11.00;;
1959;SDS011;980;43.794;11.212;2023-08-01T06:49:26;15.00;;;10.00;;
1959;SDS011;980;43.794;11.212;2023-08-01T06:51:51;12.67;;;11.67;;
1959;SDS011;980;43.794;11.212;2023-08-01T06:54:16;13.67;;;11.00;;
1959;SDS011;980;43.794;11.212;2023-08-01T06:56:41;11.67;;;10.00;;
1959;SDS011;980;43.794;11.212;2023-08-01T06:59:13;14.33;;;12.00;;
1959;SDS011;980;43.794;11.212;2023-08-01T07:01:39;12.00;;;10.00;;
1959;SDS011;980;43.794;11.212;2023-08-01T07:04:05;11.33;;;10.33;;
1959;SDS011;980;43.794;11.212;2023-08-01T07:06:30;13.00;;;10.33;;
1959;SDS011;980;43.794;11.212;2023-08-01T07:08:56;12.67;;;9.67;;
1959;SDS011;980;43.794;11.212;2023-08-01T07:11:23;10.00;;;10.00;;
1959;SDS011;980;43.794;11.212;2023-08-01T07:13:48;17.33;;;17.33;;
1959;SDS011;980;43.794;11.212;2023-08-01T07:16:14;11.33;;;10.33;;
1959;SDS011;980;43.794;11.212;2023-08-01T07:18:39;10.67;;;8.67;;
1959;SDS011;980;43.794;11.212;2023-08-01T07:21:05;10.33;;;10.33;;
1959;SDS011;980;43.794;11.212;2023-08-01T07:23:30;11.00;;;10.33;;
1959;SDS011;980;43.794;11.212;2023-08-01T07:25:56;16.67;;;13.00;;
1959;SDS011;980;43.794;11.212;2023-08-01T07:28:21;9.67;;;9.67;;
1959;SDS011;980;43.794;11.212;2023-08-01T07:30:47;12.33;;;12.00;;
1959;SDS011;980;43.794;11.212;2023-08-01T07:33:12;13.00;;;10.00;;
1959;SDS011;980;43.794;11.212;2023-08-01T07:35:37;22.00;;;21.00;;
1959;SDS011;980;43.794;11.212;2023-08-01T07:38:03;46.50;;;41.25;;
1959;SDS011;980;43.794;11.212;2023-08-01T07:40:28;41.50;;;37.25;;
1959;SDS011;980;43.794;11.212;2023-08-01T07:42:54;19.67;;;17.67;;
1959;SDS011;980;43.794;11.212;2023-08-01T07:45:19;15.00;;;14.00;;
1959;SDS011;980;43.794;11.212;2023-08-01T07:47:45;14.33;;;13.00;;
1959;SDS011;980;43.794;11.212;2023-08-01T07:50:10;10.33;;;8.67;;
1959;SDS011;980;43.794;11.212;2023-08-01T07:52:36;11.00;;;9.33;;
1959;SDS011;980;43.794;11.212;2023-08-01T07:55:01;9.00;;;6.67;;
1959;SDS011;980;43.794;11.212;2023-08-01T07:57:27;10.00;;;9.33;;
1959;SDS011;980;43.794;11.212;2023-08-01T07:59:52;10.00;;;8.33;;
1959;SDS011;980;43.794;11.212;2023-08-01T08:02:17;11.33;;;9.67;;
1959;SDS011;980;43.794;11.212;2023-08-01T08:04:42;12.33;;;11.33;;
1959;SDS011;980;43.794;11.212;2023-08-01T08:07:08;10.00;;;10.00;;
1959;SDS011;980;43.794;11.212;2023-08-01T08:09:33;9.67;;;9.67;;
1959;SDS011;980;43.794;11.212;2023-08-01T08:11:58;11.33;;;10.33;;
1959;SDS011;980;43.794;11.212;2023-08-01T08:14:24;9.00;;;9.00;;
1959;SDS011;980;43.794;11.212;2023-08-01T08:16:50;8.00;;;7.33;;
1959;SDS011;980;43.794;11.212;2023-08-01T08:19:15;8.50;;;8.00;;
1959;SDS011;980;43.794;11.212;2023-08-01T08:21:41;10.00;;;8.33;;
1959;SDS011;980;43.794;11.212;2023-08-01T08:24:06;10.00;;;10.00;;
1959;SDS011;980;43.794;11.212;2023-08-01T08:26:31;10.33;;;10.00;;
1959;SDS011;980;43.794;11.212;2023-08-01T08:28:59;8.75;;;7.00;;
1959;SDS011;980;43.794;11.212;2023-08-01T08:31:24;12.33;;;8.67;;
1959;SDS011;980;43.794;11.212;2023-08-01T08:33:50;8.33;;;8.00;;
1959;SDS011;980;43.794;11.212;2023-08-01T08:36:15;8.00;;;8.00;;
1959;SDS011;980;43.794;11.212;2023-08-01T08:38:40;12.33;;;10.00;;
1959;SDS011;980;43.794;11.212;2023-08-01T08:41:08;11.67;;;8.00;;
1959;SDS011;980;43.794;11.212;2023-08-01T08:43:33;10.50;;;10.50;;
1959;SDS011;980;43.794;11.212;2023-08-01T08:46:00;11.00;;;10.33;;
1959;SDS011;980;43.794;11.212;2023-08-01T08:48:25;11.25;;;10.75;;
1959;SDS011;980;43.794;11.212;2023-08-01T08:50:50;13.67;;;11.67;;
1959;SDS011;980;43.794;11.212;2023-08-01T08:53:16;10.75;;;10.75;;
1959;SDS011;980;43.794;11.212;2023-08-01T08:55:42;8.67;;;8.67;;
1959;SDS011;980;43.794;11.212;2023-08-01T08:58:08;8.00;;;8.00;;
1959;SDS011;980;43.794;11.212;2023-08-01T09:00:37;11.33;;;8.33;;
1959;SDS011;980;43.794;11.212;2023-08-01T09:03:03;7.00;;;7.00;;
1959;SDS011;980;43.794;11.212;2023-08-01T09:05:30;8.25;;;8.25;;
1959;SDS011;980;43.794;11.212;2023-08-01T09:07:56;9.00;;;7.00;;
1959;SDS011;980;43.794;11.212;2023-08-01T09:10:24;9.25;;;6.00;;
1959;SDS011;980;43.794;11.212;2023-08-01T09:12:49;6.00;;;4.00;;
1959;SDS011;980;43.794;11.212;2023-08-01T09:15:15;10.33;;;7.00;;
1959;SDS011;980;43.794;11.212;2023-08-01T09:17:48;7.25;;;7.25;;
1959;SDS011;980;43.794;11.212;2023-08-01T09:20:14;7.75;;;7.75;;
1959;SDS011;980;43.794;11.212;2023-08-01T09:22:46;7.67;;;7.67;;
1959;SDS011;980;43.794;11.212;2023-08-01T09:25:12;9.00;;;8.00;;
1959;SDS011;980;43.794;11.212;2023-08-01T09:27:37;7.75;;;7.00;;
1959;SDS011;980;43.794;11.212;2023-08-01T09:30:09;8.67;;;8.00;;
1959;SDS011;980;43.794;11.212;2023-08-01T09:32:36;11.25;;;10.00;;
1959;SDS011;980;43.794;11.212;2023-08-01T09:35:01;9.00;;;8.00;;
1959;SDS011;980;43.794;11.212;2023-08-01T09:37:27;9.33;;;7.00;;
1959;SDS011;980;43.794;11.212;2023-08-01T09:40:02;7.25;;;6.25;;
1959;SDS011;980;43.794;11.212;2023-08-01T09:42:36;10.67;;;7.67;;
1959;SDS011;980;43.794;11.212;2023-08-01T09:45:02;9.25;;;8.50;;
1959;SDS011;980;43.794;11.212;2023-08-01T09:47:35;7.75;;;7.00;;
1959;SDS011;980;43.794;11.212;2023-08-01T09:50:00;8.00;;;8.00;;
1959;SDS011;980;43.794;11.212;2023-08-01T09:52:29;8.67;;;8.67;;
1959;SDS011;980;43.794;11.212;2023-08-01T09:54:54;11.50;;;10.25;;
1959;SDS011;980;43.794;11.212;2023-08-01T09:57:20;8.00;;;7.00;;
1959;SDS011;980;43.794;11.212;2023-08-01T09:59:47;8.00;;;8.00;;
1959;SDS011;980;43.794;11.212;2023-08-01T10:02:14;8.00;;;8.00;;
1959;SDS011;980;43.794;11.212;2023-08-01T10:04:40;15.00;;;9.75;;
1959;SDS011;980;43.794;11.212;2023-08-01T10:07:08;9.50;;;7.00;;
1959;SDS011;980;43.794;11.212;2023-08-01T10:09:33;8.25;;;8.25;;
1959;SDS011;980;43.794;11.212;2023-08-01T10:12:00;9.25;;;7.00;;
1959;SDS011;980;43.794;11.212;2023-08-01T10:14:26;9.00;;;9.00;;
1959;SDS011;980;43.794;11.212;2023-08-01T10:16:52;7.33;;;6.00;;
1959;SDS011;980;43.794;11.212;2023-08-01T10:19:19;9.00;;;8.00;;
1959;SDS011;980;43.794;11.212;2023-08-01T10:21:44;10.33;;;9.33;;
1959;SDS011;980;43.794;11.212;2023-08-01T10:24:11;8.00;;;5.75;;
1959;SDS011;980;43.794;11.212;2023-08-01T10:26:38;7.50;;;7.50;;
1959;SDS011;980;43.794;11.212;2023-08-01T10:29:03;10.00;;;7.33;;
1959;SDS011;980;43.794;11.212;2023-08-01T10:31:29;10.00;;;9.00;;
1959;SDS011;980;43.794;11.212;2023-08-01T10:34:03;10.00;;;10.00;;
1959;SDS011;980;43.794;11.212;2023-08-01T10:36:28;9.50;;;7.50;;
1959;SDS011;980;43.794;11.212;2023-08-01T10:38:57;10.00;;;9.00;;
1959;SDS011;980;43.794;11.212;2023-08-01T10:41:32;11.50;;;10.00;;
1959;SDS011;980;43.794;11.212;2023-08-01T10:44:10;12.75;;;11.00;;
1959;SDS011;980;43.794;11.212;2023-08-01T10:46:50;10.25;;;8.50;;
1959;SDS011;980;43.794;11.212;2023-08-01T10:49:16;11.50;;;11.00;;
1959;SDS011;980;43.794;11.212;2023-08-01T10:51:41;9.67;;;7.33;;
1959;SDS011;980;43.794;11.212;2023-08-01T10:54:17;8.00;;;8.00;;
1959;SDS011;980;43.794;11.212;2023-08-01T10:56:44;8.50;;;6.50;;
1959;SDS011;980;43.794;11.212;2023-08-01T10:59:09;7.50;;;7.00;;
1959;SDS011;980;43.794;11.212;2023-08-01T11:01:42;9.00;;;7.00;;
1959;SDS011;980;43.794;11.212;2023-08-01T11:04:17;8.00;;;8.00;;
1959;SDS011;980;43.794;11.212;2023-08-01T11:06:43;7.50;;;6.75;;
1959;SDS011;980;43.794;11.212;2023-08-01T11:09:22;8.00;;;8.00;;
1959;SDS011;980;43.794;11.212;2023-08-01T11:11:51;12.25;;;10.75;;
1959;SDS011;980;43.794;11.212;2023-08-01T11:14:19;11.25;;;8.75;;
1959;SDS011;980;43.794;11.212;2023-08-01T11:16:44;10.00;;;8.25;;
1959;SDS011;980;43.794;11.212;2023-08-01T11:19:20;9.33;;;9.00;;
1959;SDS011;980;43.794;11.212;2023-08-01T11:21:45;8.00;;;6.50;;
1959;SDS011;980;43.794;11.212;2023-08-01T11:24:11;7.33;;;7.33;;
1959;SDS011;980;43.794;11.212;2023-08-01T11:26:39;12.33;;;9.67;;
1959;SDS011;980;43.794;11.212;2023-08-01T11:29:05;10.00;;;9.00;;
1959;SDS011;980;43.794;11.212;2023-08-01T11:31:30;11.00;;;9.67;;
1959;SDS011;980;43.794;11.212;2023-08-01T11:33:56;9.33;;;8.00;;
1959;SDS011;980;43.794;11.212;2023-08-01T11:36:23;7.25;;;6.75;;
1959;SDS011;980;43.794;11.212;2023-08-01T11:38:49;8.50;;;8.50;;
1959;SDS011;980;43.794;11.212;2023-08-01T11:41:15;8.67;;;8.67;;
1959;SDS011;980;43.794;11.212;2023-08-01T11:43:40;6.33;;;3.67;;
1959;SDS011;980;43.794;11.212;2023-08-01T11:46:05;11.67;;;8.00;;
1959;SDS011;980;43.794;11.212;2023-08-01T11:48:31;9.33;;;8.00;;
1959;SDS011;980;43.794;11.212;2023-08-01T11:50:57;10.67;;;7.67;;
1959;SDS011;980;43.794;11.212;2023-08-01T11:53:23;7.00;;;7.00;;
1959;SDS011;980;43.794;11.212;2023-08-01T11:55:51;6.33;;;6.33;;
1959;SDS011;980;43.794;11.212;2023-08-01T11:58:40;9.00;;;9.00;;
1959;SDS011;980;43.794;11.212;2023-08-01T12:01:08;10.50;;;9.00;;
1959;SDS011;980;43.794;11.212;2023-08-01T12:03:44;8.75;;;7.25;;
1959;SDS011;980;43.794;11.212;2023-08-01T12:06:10;6.50;;;6.50;;
1959;SDS011;980;43.794;11.212;2023-08-01T12:08:37;9.50;;;6.75;;
1959;SDS011;980;43.794;11.212;2023-08-01T12:11:02;8.00;;;8.00;;
1959;SDS011;980;43.794;11.212;2023-08-01T12:13:28;8.33;;;8.33;;
1959;SDS011;980;43.794;11.212;2023-08-01T12:15:54;9.67;;;8.33;;
1959;SDS011;980;43.794;11.212;2023-08-01T12:18:26;8.75;;;7.75;;
1959;SDS011;980;43.794;11.212;2023-08-01T12:20:52;10.00;;;8.75;;
1959;SDS011;980;43.794;11.212;2023-08-01T12:23:17;8.00;;;8.00;;
1959;SDS011;980;43.794;11.212;2023-08-01T12:25:43;9.00;;;7.00;;
1959;SDS011;980;43.794;11.212;2023-08-01T12:28:08;7.67;;;6.67;;
1959;SDS011;980;43.794;11.212;2023-08-01T12:30:33;10.00;;;7.00;;
1959;SDS011;980;43.794;11.212;2023-08-01T12:32:59;7.00;;;5.33;;
1959;SDS011;980;43.794;11.212;2023-08-01T12:35:25;9.50;;;8.00;;
1959;SDS011;980;43.794;11.212;2023-08-01T12:37:51;10.00;;;7.00;;
1959;SDS011;980;43.794;11.212;2023-08-01T12:40:17;7.50;;;7.00;;
1959;SDS011;980;43.794;11.212;2023-08-01T12:42:42;6.67;;;6.67;;
1959;SDS011;980;43.794;11.212;2023-08-01T12:45:08;6.67;;;6.67;;
1959;SDS011;980;43.794;11.212;2023-08-01T12:47:33;7.00;;;6.33;;
1959;SDS011;980;43.794;11.212;2023-08-01T12:49:58;5.00;;;5.00;;
1959;SDS011;980;43.794;11.212;2023-08-01T12:52:24;7.00;;;7.00;;
1959;SDS011;980;43.794;11.212;2023-08-01T12:54:50;9.25;;;6.75;;
1959;SDS011;980;43.794;11.212;2023-08-01T12:57:15;9.00;;;6.67;;
1959;SDS011;980;43.794;11.212;2023-08-01T12:59:41;10.67;;;8.00;;
1959;SDS011;980;43.794;11.212;2023-08-01T13:02:06;5.33;;;5.33;;
1959;SDS011;980;43.794;11.212;2023-08-01T13:04:33;8.50;;;8.50;;
1959;SDS011;980;43.794;11.212;2023-08-01T13:06:59;9.00;;;6.67;;
1959;SDS011;980;43.794;11.212;2023-08-01T13:09:24;6.33;;;6.00;;
1959;SDS011;980;43.794;11.212;2023-08-01T13:11:49;7.00;;;7.00;;
1959;SDS011;980;43.794;11.212;2023-08-01T13:14:14;7.00;;;7.00;;
1959;SDS011;980;43.794;11.212;2023-08-01T13:16:40;6.67;;;6.33;;
1959;SDS011;980;43.794;11.212;2023-08-01T13:19:05;9.00;;;7.00;;
1959;SDS011;980;43.794;11.212;2023-08-01T13:21:32;7.00;;;7.00;;
1959;SDS011;980;43.794;11.212;2023-08-01T13:23:59;9.25;;;9.00;;
1959;SDS011;980;43.794;11.212;2023-08-01T13:26:24;7.33;;;7.00;;
1959;SDS011;980;43.794;11.212;2023-08-01T13:28:50;11.00;;;11.00;;
1959;SDS011;980;43.794;11.212;2023-08-01T13:31:15;6.67;;;5.33;;
1959;SDS011;980;43.794;11.212;2023-08-01T13:33:40;13.67;;;13.00;;
1959;SDS011;980;43.794;11.212;2023-08-01T13:36:05;7.00;;;7.00;;
1959;SDS011;980;43.794;11.212;2023-08-01T13:38:31;8.67;;;8.00;;
1959;SDS011;980;43.794;11.212;2023-08-01T13:41:00;7.67;;;7.67;;
1959;SDS011;980;43.794;11.212;2023-08-01T13:43:26;7.00;;;7.00;;
1959;SDS011;980;43.794;11.212;2023-08-01T13:45:51;6.67;;;6.00;;
1959;SDS011;980;43.794;11.212;2023-08-01T13:48:17;9.75;;;7.75;;
1959;SDS011;980;43.794;11.212;2023-08-01T13:50:43;11.00;;;9.00;;
1959;SDS011;980;43.794;11.212;2023-08-01T13:53:08;10.00;;;9.00;;
1959;SDS011;980;43.794;11.212;2023-08-01T13:55:37;9.75;;;8.25;;
1959;SDS011;980;43.794;11.212;2023-08-01T13:58:02;6.00;;;6.00;;
1959;SDS011;980;43.794;11.212;2023-08-01T14:00:27;8.00;;;6.33;;
1959;SDS011;980;43.794;11.212;2023-08-01T14:02:53;5.67;;;5.67;;
1959;SDS011;980;43.794;11.212;2023-08-01T14:05:18;7.00;;;7.00;;
1959;SDS011;980;43.794;11.212;2023-08-01T14:07:44;9.67;;;7.00;;
1959;SDS011;980;43.794;11.212;2023-08-01T14:10:09;6.33;;;6.33;;
1959;SDS011;980;43.794;11.212;2023-08-01T14:12:34;9.67;;;9.67;;
1959;SDS011;980;43.794;11.212;2023-08-01T14:15:00;10.33;;;9.00;;
1959;SDS011;980;43.794;11.212;2023-08-01T14:17:25;10.00;;;9.67;;
1959;SDS011;980;43.794;11.212;2023-08-01T14:19:51;8.67;;;8.33;;
1959;SDS011;980;43.794;11.212;2023-08-01T14:22:16;8.33;;;7.67;;
1959;SDS011;980;43.794;11.212;2023-08-01T14:24:41;11.00;;;9.00;;
1959;SDS011;980;43.794;11.212;2023-08-01T14:27:07;8.00;;;8.00;;
1959;SDS011;980;43.794;11.212;2023-08-01T14:29:33;12.33;;;10.67;;
1959;SDS011;980;43.794;11.212;2023-08-01T14:31:58;12.33;;;10.00;;
1959;SDS011;980;43.794;11.212;2023-08-01T14:34:23;19.67;;;18.00;;
1959;SDS011;980;43.794;11.212;2023-08-01T14:36:49;16.00;;;12.00;;
1959;SDS011;980;43.794;11.212;2023-08-01T14:39:14;9.00;;;9.00;;
1959;SDS011;980;43.794;11.212;2023-08-01T14:41:39;11.00;;;9.00;;
1959;SDS011;980;43.794;11.212;2023-08-01T14:44:05;11.67;;;10.00;;
1959;SDS011;980;43.794;11.212;2023-08-01T14:46:30;14.00;;;11.67;;
1959;SDS011;980;43.794;11.212;2023-08-01T14:48:55;12.00;;;11.00;;
1959;SDS011;980;43.794;11.212;2023-08-01T14:51:21;9.00;;;9.00;;
1959;SDS011;980;43.794;11.212;2023-08-01T14:53:46;9.00;;;9.00;;
1959;SDS011;980;43.794;11.212;2023-08-01T14:56:11;9.00;;;8.00;;
1959;SDS011;980;43.794;11.212;2023-08-01T14:58:37;7.67;;;7.67;;
1959;SDS011;980;43.794;11.212;2023-08-01T15:01:05;8.75;;;8.75;;
1959;SDS011;980;43.794;11.212;2023-08-01T15:03:30;10.75;;;9.00;;
1959;SDS011;980;43.794;11.212;2023-08-01T15:05:56;8.67;;;8.00;;
1959;SDS011;980;43.794;11.212;2023-08-01T15:08:21;12.00;;;9.00;;
1959;SDS011;980;43.794;11.212;2023-08-01T15:10:46;12.00;;;9.00;;
1959;SDS011;980;43.794;11.212;2023-08-01T15:13:11;9.00;;;9.00;;
1959;SDS011;980;43.794;11.212;2023-08-01T15:15:37;10.00;;;8.67;;
1959;SDS011;980;43.794;11.212;2023-08-01T15:18:02;13.67;;;8.67;;
1959;SDS011;980;43.794;11.212;2023-08-01T15:20:27;10.00;;;9.00;;
1959;SDS011;980;43.794;11.212;2023-08-01T15:22:53;9.00;;;9.00;;
1959;SDS011;980;43.794;11.212;2023-08-01T15:25:18;10.00;;;9.00;;
1959;SDS011;980;43.794;11.212;2023-08-01T15:27:43;9.67;;;9.33;;
1959;SDS011;980;43.794;11.212;2023-08-01T15:30:09;10.67;;;9.67;;
1959;SDS011;980;43.794;11.212;2023-08-01T15:32:34;12.00;;;11.00;;
1959;SDS011;980;43.794;11.212;2023-08-01T15:34:59;8.00;;;8.00;;
1959;SDS011;980;43.794;11.212;2023-08-01T15:37:26;8.00;;;8.00;;
1959;SDS011;980;43.794;11.212;2023-08-01T15:39:52;8.75;;;8.75;;
1959;SDS011;980;43.794;11.212;2023-08-01T15:42:17;9.33;;;9.33;;
1959;SDS011;980;43.794;11.212;2023-08-01T15:44:43;8.67;;;7.33;;
1959;SDS011;980;43.794;11.212;2023-08-01T15:47:08;8.33;;;8.33;;
1959;SDS011;980;43.794;11.212;2023-08-01T15:49:33;7.00;;;7.00;;
1959;SDS011;980;43.794;11.212;2023-08-01T15:51:59;8.67;;;7.67;;
1959;SDS011;980;43.794;11.212;2023-08-01T15:54:24;8.67;;;7.67;;
1959;SDS011;980;43.794;11.212;2023-08-01T15:56:49;7.00;;;7.00;;
1959;SDS011;980;43.794;11.212;2023-08-01T15:59:15;6.67;;;5.00;;
1959;SDS011;980;43.794;11.212;2023-08-01T16:01:40;8.33;;;7.00;;
1959;SDS011;980;43.794;11.212;2023-08-01T16:04:05;11.00;;;9.00;;
1959;SDS011;980;43.794;11.212;2023-08-01T16:06:31;12.00;;;10.67;;
1959;SDS011;980;43.794;11.212;2023-08-01T16:08:56;8.00;;;8.00;;
1959;SDS011;980;43.794;11.212;2023-08-01T16:11:21;14.33;;;14.33;;
1959;SDS011;980;43.794;11.212;2023-08-01T16:13:47;11.67;;;11.67;;
1959;SDS011;980;43.794;11.212;2023-08-01T16:16:12;15.67;;;14.33;;
1959;SDS011;980;43.794;11.212;2023-08-01T16:18:37;8.67;;;7.67;;
1959;SDS011;980;43.794;11.212;2023-08-01T16:21:02;8.00;;;8.00;;
1959;SDS011;980;43.794;11.212;2023-08-01T16:23:28;8.33;;;8.33;;
1959;SDS011;980;43.794;11.212;2023-08-01T16:25:53;10.00;;;9.00;;
1959;SDS011;980;43.794;11.212;2023-08-01T16:28:19;14.67;;;12.00;;
1959;SDS011;980;43.794;11.212;2023-08-01T16:30:44;9.67;;;7.00;;
1959;SDS011;980;43.794;11.212;2023-08-01T16:33:10;13.33;;;13.33;;
1959;SDS011;980;43.794;11.212;2023-08-01T16:35:36;14.50;;;14.50;;
1959;SDS011;980;43.794;11.212;2023-08-01T16:38:01;9.67;;;8.33;;
1959;SDS011;980;43.794;11.212;2023-08-01T16:40:27;16.33;;;10.33;;
1959;SDS011;980;43.794;11.212;2023-08-01T16:42:52;11.67;;;10.67;;
1959;SDS011;980;43.794;11.212;2023-08-01T16:45:17;10.33;;;10.00;;
1959;SDS011;980;43.794;11.212;2023-08-01T16:47:43;8.33;;;8.33;;
1959;SDS011;980;43.794;11.212;2023-08-01T16:50:15;8.00;;;7.67;;
1959;SDS011;980;43.794;11.212;2023-08-01T16:52:40;11.00;;;10.25;;
1959;SDS011;980;43.794;11.212;2023-08-01T16:55:06;11.00;;;9.67;;
1959;SDS011;980;43.794;11.212;2023-08-01T16:57:31;12.00;;;11.00;;
1959;SDS011;980;43.794;11.212;2023-08-01T16:59:56;11.33;;;9.00;;
1959;SDS011;980;43.794;11.212;2023-08-01T17:02:22;9.00;;;7.33;;
1959;SDS011;980;43.794;11.212;2023-08-01T17:04:47;10.33;;;9.00;;
1959;SDS011;980;43.794;11.212;2023-08-01T17:07:12;14.00;;;11.33;;
1959;SDS011;980;43.794;11.212;2023-08-01T17:09:38;9.67;;;9.67;;
1959;SDS011;980;43.794;11.212;2023-08-01T17:12:03;12.00;;;9.00;;
1959;SDS011;980;43.794;11.212;2023-08-01T17:14:29;9.33;;;9.33;;
1959;SDS011;980;43.794;11.212;2023-08-01T17:16:54;10.00;;;8.33;;
1959;SDS011;980;43.794;11.212;2023-08-01T17:19:20;8.33;;;6.67;;
1959;SDS011;980;43.794;11.212;2023-08-01T17:21:45;10.00;;;10.00;;
1959;SDS011;980;43.794;11.212;2023-08-01T17:24:10;8.00;;;8.00;;
1959;SDS011;980;43.794;11.212;2023-08-01T17:26:37;10.00;;;10.00;;
1959;SDS011;980;43.794;11.212;2023-08-01T17:29:02;10.67;;;7.00;;
1959;SDS011;980;43.794;11.212;2023-08-01T17:31:27;10.33;;;8.67;;
1959;SDS011;980;43.794;11.212;2023-08-01T17:33:56;10.25;;;9.50;;
1959;SDS011;980;43.794;11.212;2023-08-01T17:36:23;7.50;;;6.75;;
1959;SDS011;980;43.794;11.212;2023-08-01T17:38:48;15.00;;;13.67;;
1959;SDS011;980;43.794;11.212;2023-08-01T17:41:17;9.67;;;8.00;;
1959;SDS011;980;43.794;11.212;2023-08-01T17:43:43;10.00;;;9.00;;
1959;SDS011;980;43.794;11.212;2023-08-01T17:46:08;11.00;;;9.00;;
1959;SDS011;980;43.794;11.212;2023-08-01T17:48:34;10.50;;;10.50;;
1959;SDS011;980;43.794;11.212;2023-08-01T17:51:02;12.25;;;10.00;;
1959;SDS011;980;43.794;11.212;2023-08-01T17:53:27;9.00;;;7.33;;
1959;SDS011;980;43.794;11.212;2023-08-01T17:55:52;12.00;;;8.00;;
1959;SDS011;980;43.794;11.212;2023-08-01T17:58:18;11.33;;;10.33;;
1959;SDS011;980;43.794;11.212;2023-08-01T18:00:43;15.00;;;13.00;;
1959;SDS011;980;43.794;11.212;2023-08-01T18:03:08;11.67;;;10.67;;
1959;SDS011;980;43.794;11.212;2023-08-01T18:05:34;11.67;;;9.00;;
1959;SDS011;980;43.794;11.212;2023-08-01T18:07:59;10.67;;;8.67;;
1959;SDS011;980;43.794;11.212;2023-08-01T18:10:25;10.67;;;7.00;;
1959;SDS011;980;43.794;11.212;2023-08-01T18:12:51;8.25;;;7.50;;
1959;SDS011;980;43.794;11.212;2023-08-01T18:15:16;9.00;;;7.00;;
1959;SDS011;980;43.794;11.212;2023-08-01T18:17:42;8.33;;;8.33;;
1959;SDS011;980;43.794;11.212;2023-08-01T18:20:07;6.00;;;5.33;;
1959;SDS011;980;43.794;11.212;2023-08-01T18:22:35;9.00;;;8.00;;
1959;SDS011;980;43.794;11.212;2023-08-01T18:25:00;10.00;;;8.67;;
1959;SDS011;980;43.794;11.212;2023-08-01T18:27:25;8.67;;;8.67;;
1959;SDS011;980;43.794;11.212;2023-08-01T18:29:51;8.67;;;8.33;;
1959;SDS011;980;43.794;11.212;2023-08-01T18:32:16;7.67;;;4.00;;
1959;SDS011;980;43.794;11.212;2023-08-01T18:34:41;7.67;;;7.33;;
1959;SDS011;980;43.794;11.212;2023-08-01T18:37:06;11.00;;;11.00;;
1959;SDS011;980;43.794;11.212;2023-08-01T18:39:32;8.67;;;8.00;;
1959;SDS011;980;43.794;11.212;2023-08-01T18:41:57;7.00;;;7.00;;
1959;SDS011;980;43.794;11.212;2023-08-01T18:44:22;8.00;;;6.67;;
1959;SDS011;980;43.794;11.212;2023-08-01T18:46:47;9.67;;;8.00;;
1959;SDS011;980;43.794;11.212;2023-08-01T18:49:13;12.00;;;11.00;;
1959;SDS011;980;43.794;11.212;2023-08-01T18:51:39;8.33;;;7.33;;
1959;SDS011;980;43.794;11.212;2023-08-01T18:54:04;9.33;;;7.33;;
1959;SDS011;980;43.794;11.212;2023-08-01T18:56:31;10.25;;;10.00;;
1959;SDS011;980;43.794;11.212;2023-08-01T18:58:56;8.33;;;8.00;;
1959;SDS011;980;43.794;11.212;2023-08-01T19:01:22;6.00;;;6.00;;
